Time;durP1;ratioP1;P1;durP2;ratioP2;P2;SDS_P1;SDS_P2;PMS_P1;PMS_P2;Temp;Humidity;BMP_temperature;BMP_pressure;BME280_temperature;BME280_humidity;BME280_pressure;Samples;Min_cycle;Max_cycle;Signal;HPM_P1;HPM_P2
2021/04/12 00:00:36;;;;;;;0.50;0.50;;;;;;;0.96;68.13;101573.80;1741278;82;21128;-44
2021/04/12 00:03:23;;;;;;;1.05;0.90;;;;;;;0.97;67.97;101570.62;1760344;81;21095;-44
2021/04/12 00:06:16;;;;;;;0.60;0.57;;;;;;;0.98;67.72;101572.28;1760267;81;21187;-44
2021/04/12 00:09:21;;;;;;;0.47;0.47;;;;;;;0.98;67.62;101573.11;1760389;81;21221;-43
2021/04/12 00:11:57;;;;;;;1.05;1.02;;;;;;;0.98;67.41;101565.55;1760199;81;21191;-44
2021/04/12 00:14:35;;;;;;;1.45;0.75;;;;;;;0.96;67.32;101560.34;1730523;81;21569;-44
2021/04/12 00:17:29;;;;;;;2.85;1.32;;;;;;;0.95;67.42;101558.69;1740778;81;21877;-44
2021/04/12 00:20:19;;;;;;;1.65;1.05;;;;;;;0.93;67.69;101562.59;1611946;88;21243;-44
2021/04/12 00:23:17;;;;;;;1.00;0.50;;;;;;;0.95;67.74;101556.00;1887937;76;29030;-44
2021/04/12 00:25:56;;;;;;;1.65;0.80;;;;;;;0.89;67.78;101560.80;1765676;79;21249;-44
2021/04/12 00:28:44;;;;;;;0.55;0.55;;;;;;;0.87;67.97;101550.73;1764838;81;21157;-44
2021/04/12 00:31:29;;;;;;;0.65;0.65;;;;;;;0.85;68.18;101553.60;1764772;81;21131;-44
2021/04/12 00:34:04;;;;;;;1.80;1.62;;;;;;;0.84;68.35;101551.95;1739073;80;21165;-44
2021/04/12 00:36:54;;;;;;;0.15;0.15;;;;;;;0.84;68.37;101553.78;1735664;81;21142;-44
2021/04/12 00:39:31;;;;;;;0.20;0.20;;;;;;;0.83;68.28;101548.91;1734354;80;21123;-44
2021/04/12 00:42:04;;;;;;;1.00;1.00;;;;;;;0.83;68.30;101552.13;1783239;80;21166;-44
2021/04/12 00:44:55;;;;;;;0.57;0.57;;;;;;;0.83;68.52;101552.95;1783232;80;21107;-44
2021/04/12 00:48:15;;;;;;;0.17;0.17;;;;;;;0.84;68.48;101547.05;1754894;80;21114;-44
2021/04/12 00:51:05;;;;;;;0.25;0.25;;;;;;;0.83;68.49;101541.36;1755276;80;21125;-44
2021/04/12 00:54:03;;;;;;;2.05;0.70;;;;;;;0.84;68.47;101544.36;1755775;81;21117;-44
2021/04/12 00:56:35;;;;;;;1.00;0.95;;;;;;;0.84;68.52;101534.45;1745935;81;21134;-47
2021/04/12 00:59:19;;;;;;;0.10;0.10;;;;;;;0.86;68.58;101531.03;1755384;80;21130;-47
2021/04/12 01:02:01;;;;;;;0.62;0.62;;;;;;;0.89;68.60;101520.92;1782570;80;21551;-46
2021/04/12 01:05:07;;;;;;;0.72;0.72;;;;;;;0.90;68.71;101524.78;1722943;80;21435;-46
2021/04/12 01:08:24;;;;;;;0.35;0.35;;;;;;;0.93;68.77;101514.15;1753338;81;21421;-47
2021/04/12 01:11:25;;;;;;;3.05;1.15;;;;;;;0.95;68.73;101513.45;1755071;81;21130;-46
2021/04/12 01:14:12;;;;;;;0.65;0.65;;;;;;;0.97;68.79;101504.69;1755746;81;22573;-46
2021/04/12 01:16:57;;;;;;;3.60;1.52;;;;;;;1.02;68.85;101506.29;1753347;81;21158;-47
2021/04/12 01:19:50;;;;;;;0.20;0.20;;;;;;;1.07;68.77;101502.51;1756116;81;21583;-46
2021/04/12 01:22:56;;;;;;;0.70;0.70;;;;;;;1.11;68.88;101497.56;1764259;81;21109;-47
2021/04/12 01:25:55;;;;;;;0.62;0.62;;;;;;;1.14;68.79;101496.69;1764620;79;21125;-46
2021/04/12 01:28:57;;;;;;;1.67;1.02;;;;;;;1.20;68.70;101500.46;1764548;81;21540;-46
2021/04/12 01:31:44;;;;;;;0.90;0.90;;;;;;;1.26;68.63;101496.98;1764301;81;21122;-47
2021/04/12 01:34:51;;;;;;;0.85;0.85;;;;;;;1.33;68.54;101488.47;1763940;79;21552;-47
2021/04/12 01:37:51;;;;;;;1.37;0.70;;;;;;;1.40;68.41;101489.88;1764124;81;21153;-47
2021/04/12 01:40:41;;;;;;;0.85;0.40;;;;;;;1.46;68.27;101481.05;1763957;79;21172;-46
2021/04/12 01:43:28;;;;;;;0.30;0.30;;;;;;;1.50;68.18;101476.39;1708577;82;21208;-46
2021/04/12 01:46:04;;;;;;;1.87;1.45;;;;;;;1.53;68.09;101468.44;1733707;82;21146;-46
2021/04/12 01:48:53;;;;;;;0.62;0.62;;;;;;;1.58;67.98;101470.03;1746454;81;21142;-47
2021/04/12 01:51:48;;;;;;;2.22;1.30;;;;;;;1.62;67.90;101462.41;1764160;81;21658;-46
2021/04/12 01:54:38;;;;;;;0.57;0.57;;;;;;;1.65;67.88;101468.22;1762580;81;21171;-47
2021/04/12 01:57:47;;;;;;;0.17;0.17;;;;;;;1.64;67.78;101458.48;1763555;81;20992;-47
2021/04/12 02:00:35;;;;;;;1.25;1.17;;;;;;;1.65;67.77;101454.75;1733731;81;21121;-47
2021/04/12 02:03:15;;;;;;;1.65;1.55;;;;;;;1.65;67.78;101454.75;1733672;82;21165;-47
2021/04/12 02:06:13;;;;;;;0.85;0.85;;;;;;;1.63;67.86;101451.44;1763052;81;21710;-46
2021/04/12 02:09:31;;;;;;;0.50;0.50;;;;;;;1.62;67.89;101448.41;1741207;81;21266;-47
2021/04/12 02:12:27;;;;;;;0.80;0.80;;;;;;;1.60;67.91;101445.08;1764053;81;21137;-46
2021/04/12 02:15:01;;;;;;;0.68;0.68;;;;;;;1.57;68.02;101445.48;1763236;81;21128;-47
2021/04/12 02:17:57;;;;;;;0.55;0.55;;;;;;;1.55;68.08;101448.88;1742555;80;21149;-47
2021/04/12 02:20:59;;;;;;;0.20;0.20;;;;;;;1.54;68.11;101451.27;1725570;81;21118;-47
2021/04/12 02:23:38;;;;;;;0.30;0.30;;;;;;;1.50;68.14;101444.59;1715154;81;21200;-46
2021/04/12 02:26:38;;;;;;;1.72;1.62;;;;;;;1.49;68.14;101444.28;1771200;80;21162;-46
2021/04/12 02:29:35;;;;;;;2.98;1.35;;;;;;;1.46;68.20;101440.64;1749524;82;21162;-48
2021/04/12 02:32:44;;;;;;;0.35;0.35;;;;;;;1.44;68.31;101438.65;1753453;80;21443;-46
2021/04/12 02:35:38;;;;;;;0.72;0.55;;;;;;;1.42;68.46;101440.70;1700760;82;21156;-47
2021/04/12 02:38:20;;;;;;;1.27;1.22;;;;;;;1.39;68.62;101435.70;1753509;81;21137;-46
2021/04/12 02:41:15;;;;;;;1.22;0.78;;;;;;;1.36;68.71;101440.11;1761390;80;21146;-47
2021/04/12 02:44:00;;;;;;;0.75;0.75;;;;;;;1.34;68.81;101438.98;1762001;79;21133;-46
2021/04/12 02:47:10;;;;;;;0.33;0.33;;;;;;;1.32;68.95;101437.51;1753052;81;21241;-46
2021/04/12 02:50:20;;;;;;;0.28;0.28;;;;;;;1.29;69.22;101432.83;1763182;79;21165;-46
2021/04/12 02:53:18;;;;;;;0.20;0.20;;;;;;;1.25;69.28;101428.84;1763554;81;21189;-46
2021/04/12 02:56:31;;;;;;;2.37;0.82;;;;;;;1.22;69.41;101433.28;1763669;81;21433;-47
2021/04/12 02:59:39;;;;;;;1.45;1.37;;;;;;;1.17;69.87;101435.72;1763641;79;21426;-46
2021/04/12 03:02:44;;;;;;;3.22;2.17;;;;;;;1.10;70.35;101436.17;1763650;81;21181;-46
2021/04/12 03:05:36;;;;;;;1.65;1.47;;;;;;;1.03;70.96;101437.44;1763768;79;21674;-46
2021/04/12 03:08:26;;;;;;;0.17;0.17;;;;;;;0.97;71.10;101445.47;1785825;80;21154;-46
2021/04/12 03:11:28;;;;;;;0.55;0.55;;;;;;;0.90;71.13;101442.70;1786144;80;21157;-46
2021/04/12 03:14:33;;;;;;;0.35;0.35;;;;;;;0.85;71.19;101441.92;1785921;80;21171;-46
2021/04/12 03:17:35;;;;;;;0.10;0.10;;;;;;;0.83;71.29;101440.45;1786104;80;21131;-46
2021/04/12 03:20:23;;;;;;;0.82;0.82;;;;;;;0.81;71.35;101439.28;1786343;80;21134;-47
2021/04/12 03:23:38;;;;;;;1.47;1.40;;;;;;;0.77;71.49;101432.64;1740835;81;21657;-46
2021/04/12 03:26:40;;;;;;;1.07;0.98;;;;;;;0.76;71.64;101437.68;1766743;81;21154;-46
2021/04/12 03:29:29;;;;;;;1.55;1.25;;;;;;;0.73;71.71;101439.93;1736371;81;21157;-46
2021/04/12 03:32:32;;;;;;;0.17;0.17;;;;;;;0.71;71.98;101435.24;1736242;82;21137;-47
2021/04/12 03:35:17;;;;;;;1.02;0.98;;;;;;;0.68;72.13;101431.08;1736211;81;21418;-46
2021/04/12 03:38:33;;;;;;;0.20;0.20;;;;;;;0.68;72.14;101432.94;1766625;81;21166;-47
2021/04/12 03:41:19;;;;;;;1.17;1.07;;;;;;;0.66;72.15;101430.43;1763677;80;21125;-46
2021/04/12 03:44:03;;;;;;;2.75;2.22;;;;;;;0.66;72.32;101424.22;1763575;79;21252;-46
2021/04/12 03:46:42;;;;;;;0.17;0.17;;;;;;;0.67;72.41;101426.73;1733966;81;21577;-46
2021/04/12 03:49:34;;;;;;;2.30;1.67;;;;;;;0.68;72.48;101419.49;1778523;80;21115;-46
2021/04/12 03:52:57;;;;;;;2.52;1.42;;;;;;;0.70;72.55;101431.73;1782792;80;21134;-46
2021/04/12 03:56:01;;;;;;;0.42;0.42;;;;;;;0.73;72.62;101432.69;1753916;80;21134;-46
2021/04/12 03:58:48;;;;;;;2.47;2.37;;;;;;;0.78;72.71;101422.19;1754919;80;21158;-46
2021/04/12 04:01:50;;;;;;;1.10;1.07;;;;;;;0.84;72.73;101427.30;1754954;81;21146;-46
2021/04/12 04:04:29;;;;;;;0.80;0.78;;;;;;;0.90;72.74;101436.49;1752720;80;21146;-46
2021/04/12 04:07:42;;;;;;;0.82;0.82;;;;;;;0.95;72.73;101439.44;1754976;81;21295;-46
2021/04/12 04:10:26;;;;;;;1.47;1.45;;;;;;;0.99;72.60;101430.80;1755178;80;21022;-47
2021/04/12 04:13:16;;;;;;;10.20;4.62;;;;;;;1.06;72.53;101427.66;1738715;81;21154;-46
2021/04/12 04:16:07;;;;;;;4.78;2.15;;;;;;;1.13;72.44;101422.31;1743323;81;21386;-46
2021/04/12 04:18:39;;;;;;;2.75;2.55;;;;;;;1.21;72.34;101426.73;1754652;80;21087;-46
2021/04/12 04:21:36;;;;;;;2.15;1.65;;;;;;;1.28;72.28;101423.58;1743384;81;21692;-46
2021/04/12 04:24:23;;;;;;;1.80;1.02;;;;;;;1.31;72.25;101421.02;1722748;81;21810;-46
2021/04/12 04:27:20;;;;;;;0.80;0.80;;;;;;;1.35;72.27;101408.84;1725149;83;21165;-47
2021/04/12 04:30:24;;;;;;;0.37;0.37;;;;;;;1.41;72.24;101406.20;1695778;83;21134;-47
2021/04/12 04:33:16;;;;;;;1.15;0.98;;;;;;;1.48;72.28;101401.70;1754341;81;21154;-46
2021/04/12 04:36:08;;;;;;;0.40;0.40;;;;;;;1.56;72.21;101395.33;1763828;80;21585;-46
2021/04/12 04:39:12;;;;;;;1.77;1.67;;;;;;;1.66;72.10;101397.68;1763663;81;21155;-46
2021/04/12 04:41:58;;;;;;;1.12;1.12;;;;;;;1.75;72.01;101392.42;1763494;81;21143;-47
2021/04/12 04:44:57;;;;;;;1.70;1.00;;;;;;;1.85;71.78;101396.11;1763588;81;21139;-47
2021/04/12 04:47:57;;;;;;;0.68;0.68;;;;;;;1.94;71.57;101390.89;1745857;80;21134;-47
2021/04/12 04:50:40;;;;;;;1.07;0.90;;;;;;;2.04;71.36;101394.05;1780186;79;21135;-47
2021/04/12 04:53:16;;;;;;;2.25;1.05;;;;;;;2.15;71.11;101388.09;1754740;80;21667;-46
2021/04/12 04:56:03;;;;;;;3.65;2.60;;;;;;;2.24;70.91;101388.74;1745930;80;21425;-46
2021/04/12 04:58:57;;;;;;;0.75;0.75;;;;;;;2.32;70.78;101385.86;1717518;82;21134;-47
2021/04/12 05:01:49;;;;;;;1.27;0.78;;;;;;;2.40;70.57;101379.48;1733258;82;21184;-46
2021/04/12 05:05:01;;;;;;;1.55;1.02;;;;;;;2.52;70.42;101382.39;1745939;80;21502;-47
2021/04/12 05:07:53;;;;;;;2.50;2.35;;;;;;;2.61;70.24;101380.36;1753890;81;21183;-47
2021/04/12 05:10:53;;;;;;;1.35;1.22;;;;;;;2.73;70.12;101381.42;1782270;79;21141;-47
2021/04/12 05:14:07;;;;;;;5.12;1.05;;;;;;;2.85;70.45;101384.36;1783354;80;21158;-47
2021/04/12 05:17:20;;;;;;;2.98;0.85;;;;;;;2.96;70.44;101373.76;1753894;81;21094;-47
2021/04/12 05:20:14;;;;;;;1.22;1.20;;;;;;;3.08;70.35;101369.11;1783484;80;21468;-47
2021/04/12 05:23:02;;;;;;;1.12;1.12;;;;;;;3.21;70.52;101370.45;1733969;81;21146;-46
2021/04/12 05:25:54;;;;;;;0.88;0.88;;;;;;;3.32;70.54;101365.78;1715535;83;21121;-47
2021/04/12 05:28:58;;;;;;;2.42;1.22;;;;;;;3.42;70.54;101369.41;1714323;83;21136;-47
2021/04/12 05:32:02;;;;;;;1.10;1.10;;;;;;;3.54;70.48;101366.91;1728251;83;21261;-47
2021/04/12 05:35:14;;;;;;;0.62;0.62;;;;;;;3.64;70.46;101372.70;1728388;81;21661;-47
2021/04/12 05:38:17;;;;;;;0.88;0.65;;;;;;;3.75;70.39;101372.05;1731381;80;21138;-46
2021/04/12 05:41:05;;;;;;;1.10;1.10;;;;;;;3.87;70.16;101383.87;1758009;80;26725;-46
2021/04/12 05:43:59;;;;;;;2.70;0.78;;;;;;;3.99;69.82;101379.17;1758517;80;21433;-47
2021/04/12 05:47:08;;;;;;;1.85;1.75;;;;;;;4.08;69.47;101385.48;1753274;81;21158;-47
2021/04/12 05:50:20;;;;;;;1.45;1.35;;;;;;;4.17;69.36;101380.65;1757835;80;21457;-46
2021/04/12 05:53:11;;;;;;;1.75;1.20;;;;;;;4.28;70.27;101384.58;1769453;78;21583;-47
2021/04/12 05:56:15;;;;;;;2.17;2.08;;;;;;;4.38;71.14;101393.59;1783949;79;21143;-47
2021/04/12 05:58:57;;;;;;;1.15;1.15;;;;;;;4.45;71.64;101388.95;1751358;80;21160;-47
2021/04/12 06:01:57;;;;;;;1.17;1.15;;;;;;;4.50;71.93;101387.78;1750447;81;21158;-47
2021/04/12 06:04:57;;;;;;;1.52;1.42;;;;;;;4.56;72.35;101380.16;1775607;80;21166;-47
2021/04/12 06:08:11;;;;;;;1.02;1.02;;;;;;;4.64;73.01;101381.25;1757847;80;21146;-48
2021/04/12 06:11:22;;;;;;;1.55;1.45;;;;;;;4.70;73.75;101389.87;1754966;80;21170;-47
2021/04/12 06:14:33;;;;;;;1.17;0.83;;;;;;;4.76;74.86;101383.28;1764631;78;21407;-47
2021/04/12 06:17:33;;;;;;;3.75;2.05;;;;;;;4.77;75.73;101384.40;1767783;81;21179;-47
2021/04/12 06:20:42;;;;;;;6.05;2.17;;;;;;;4.79;76.37;101386.37;1750878;81;21552;-45
2021/04/12 06:24:00;;;;;;;4.35;2.40;;;;;;;4.81;77.21;101402.41;1755215;81;21161;-45
2021/04/12 06:26:58;;;;;;;3.17;2.87;;;;;;;4.82;78.17;101397.29;1736837;80;21152;-45
2021/04/12 06:29:56;;;;;;;3.00;2.15;;;;;;;4.85;79.05;101383.34;1777109;80;21121;-45
2021/04/12 06:33:23;;;;;;;4.28;2.87;;;;;;;4.90;79.64;101387.04;1778551;80;21134;-45
2021/04/12 06:36:14;;;;;;;3.55;3.22;;;;;;;4.96;80.35;101381.27;1785831;80;21133;-45
2021/04/12 06:39:06;;;;;;;3.60;2.98;;;;;;;5.11;80.96;101375.52;1841243;76;22329;-45
2021/04/12 06:42:01;;;;;;;2.83;2.62;;;;;;;5.12;81.25;101380.73;1786365;80;21142;-45
2021/04/12 06:45:08;;;;;;;3.17;2.95;;;;;;;5.20;81.62;101363.38;1785558;78;21625;-46
2021/04/12 06:48:18;;;;;;;2.00;1.85;;;;;;;5.31;82.17;101361.81;1767715;80;21153;-45
2021/04/12 06:51:17;;;;;;;1.50;1.40;;;;;;;5.43;82.83;101356.50;1781033;80;21654;-46
2021/04/12 06:54:09;;;;;;;3.10;2.87;;;;;;;5.48;83.40;101340.39;1785727;78;21496;-45
2021/04/12 06:57:05;;;;;;;;;;;;;;;5.49;83.72;101339.33;1758498;80;21154;-45
2021/04/12 07:00:07;;;;;;;3.33;2.47;;;;;;;5.51;84.11;101335.34;1785843;78;20267;-46
2021/04/12 07:02:52;;;;;;;3.37;2.92;;;;;;;5.52;84.90;101332.95;1786857;80;21129;-45
2021/04/12 07:06:13;;;;;;;4.15;3.75;;;;;;;5.58;85.72;101334.74;1784811;79;21110;-45
2021/04/12 07:09:09;;;;;;;3.87;3.50;;;;;;;5.64;86.23;101338.97;1681275;84;21565;-45
2021/04/12 07:12:19;;;;;;;2.87;2.67;;;;;;;5.70;86.79;101343.50;1777035;79;21134;-45
2021/04/12 07:15:13;;;;;;;4.72;3.58;;;;;;;5.75;87.28;101351.79;1747012;82;21189;-45
2021/04/12 07:18:05;;;;;;;1.47;1.45;;;;;;;5.78;87.33;101342.66;1789448;79;21134;-46
2021/04/12 07:21:17;;;;;;;2.12;1.82;;;;;;;5.80;87.07;101339.73;1785162;80;21174;-44
2021/04/12 07:24:11;;;;;;;3.00;2.67;;;;;;;5.82;87.24;101352.02;1785543;78;21687;-47
2021/04/12 07:27:24;;;;;;;2.47;2.27;;;;;;;5.83;86.53;101350.12;1754742;81;21117;-46
2021/04/12 07:30:26;;;;;;;6.30;3.12;;;;;;;5.81;86.77;101354.94;1754589;80;21714;-46
2021/04/12 07:33:18;;;;;;;1.57;1.47;;;;;;;5.79;86.98;101357.08;1754179;81;21142;-46
2021/04/12 07:36:01;;;;;;;;;;;;;;;5.79;87.30;101342.16;1757197;80;21114;-46
2021/04/12 07:39:06;;;;;;;2.27;0.93;;;;;;;5.81;87.57;101345.45;1775374;78;20608;-46
2021/04/12 07:42:15;;;;;;;1.77;1.67;;;;;;;5.83;88.21;101327.07;1773830;79;21141;-46
2021/04/12 07:45:03;;;;;;;5.75;2.98;;;;;;;5.86;88.47;101312.23;1794573;78;21129;-46
2021/04/12 07:48:15;;;;;;;1.62;1.57;;;;;;;5.89;88.80;101326.18;1794208;79;21163;-45
2021/04/12 07:51:23;;;;;;;4.07;3.73;;;;;;;5.89;88.96;101335.67;1762927;80;21146;-45
2021/04/12 07:54:25;;;;;;;4.37;3.37;;;;;;;5.87;89.25;101347.27;1762588;80;21361;-45
2021/04/12 07:57:50;;;;;;;2.98;2.77;;;;;;;5.85;89.05;101330.39;1791404;79;21484;-45
2021/04/12 08:00:52;;;;;;;2.30;0.98;;;;;;;5.87;89.45;101336.42;1791473;78;21125;-45
2021/04/12 08:04:08;;;;;;;2.00;1.65;;;;;;;5.91;89.49;101339.00;1783751;79;21108;-45
2021/04/12 08:07:15;;;;;;;2.72;2.10;;;;;;;5.96;89.60;101333.75;1792339;79;21106;-45
2021/04/12 08:10:30;;;;;;;3.37;1.95;;;;;;;6.02;89.81;101328.75;1793936;78;21149;-45
2021/04/12 08:13:39;;;;;;;2.30;2.10;;;;;;;6.09;89.79;101319.18;1792582;78;21596;-44
2021/04/12 08:16:51;;;;;;;3.12;1.57;;;;;;;6.19;89.63;101317.28;1825623;78;21161;-45
2021/04/12 08:19:45;;;;;;;4.97;2.33;;;;;;;6.26;89.46;101327.53;1791477;78;21130;-45
2021/04/12 08:22:33;;;;;;;3.42;3.05;;;;;;;6.32;89.40;101330.67;1791459;79;21209;-45
2021/04/12 08:25:28;;;;;;;3.40;3.20;;;;;;;6.39;89.38;101323.27;1803993;78;21122;-44
2021/04/12 08:28:04;;;;;;;1.37;1.30;;;;;;;6.45;89.13;101317.43;1794097;79;21129;-45
2021/04/12 08:30:59;;;;;;;0.93;0.93;;;;;;;6.53;88.93;101310.34;1816120;78;21131;-45
2021/04/12 08:34:10;;;;;;;2.98;2.70;;;;;;;6.62;88.76;101298.60;1755810;78;21568;-45
2021/04/12 08:37:16;;;;;;;2.72;2.52;;;;;;;6.76;88.90;101299.23;1773709;79;21097;-45
2021/04/12 08:40:37;;;;;;;2.72;2.50;;;;;;;7.01;89.17;101297.67;1762231;79;21164;-45
2021/04/12 08:43:16;;;;;;;6.28;3.22;;;;;;;7.34;87.90;101286.20;1793200;79;21587;-45
2021/04/12 08:46:04;;;;;;;2.02;1.92;;;;;;;7.67;87.52;101286.12;1745801;79;22025;-44
2021/04/12 08:48:51;;;;;;;1.45;1.20;;;;;;;7.93;87.23;101280.13;1797198;78;21524;-44
2021/04/12 08:51:58;;;;;;;0.82;0.82;;;;;;;8.22;86.30;101275.24;1772978;79;21587;-44
2021/04/12 08:55:09;;;;;;;3.17;2.55;;;;;;;8.51;85.23;101278.27;1792271;78;21141;-44
2021/04/12 08:58:05;;;;;;;3.55;3.05;;;;;;;8.75;84.19;101272.66;1780138;78;21126;-44
2021/04/12 09:00:56;;;;;;;6.65;1.05;;;;;;;8.90;82.60;101271.57;1772290;80;21596;-44
2021/04/12 09:03:50;;;;;;;2.87;2.35;;;;;;;9.16;82.03;101265.14;1770961;79;21206;-44
2021/04/12 09:06:51;;;;;;;1.35;1.27;;;;;;;9.41;80.73;101259.22;1787898;78;21125;-44
2021/04/12 09:09:52;;;;;;;4.65;2.30;;;;;;;9.68;79.17;101262.03;1789889;78;21147;-44
2021/04/12 09:12:51;;;;;;;1.50;1.35;;;;;;;9.90;77.50;101258.75;1790337;79;21161;-44
2021/04/12 09:15:46;;;;;;;6.65;1.55;;;;;;;10.05;75.85;101254.55;1799918;78;21138;-44
2021/04/12 09:18:48;;;;;;;4.65;2.80;;;;;;;10.19;74.31;101259.91;1791409;78;21157;-44
2021/04/12 09:21:38;;;;;;;3.67;1.90;;;;;;;10.25;73.88;101253.94;1794087;78;21194;-45
2021/04/12 09:24:48;;;;;;;1.50;1.40;;;;;;;10.37;73.71;101251.09;1789450;78;21537;-45
2021/04/12 09:27:40;;;;;;;3.47;3.17;;;;;;;10.40;73.83;101249.20;1786358;79;21111;-44
2021/04/12 09:30:19;;;;;;;6.00;3.98;;;;;;;10.34;73.78;101241.52;1788518;78;21442;-45
2021/04/12 09:33:14;;;;;;;3.55;1.85;;;;;;;10.33;72.32;101246.13;1796557;79;21157;-45
2021/04/12 09:36:30;;;;;;;7.50;2.08;;;;;;;10.29;71.42;101246.92;1785948;79;29330;-44
2021/04/12 09:39:23;;;;;;;3.55;2.27;;;;;;;10.24;71.88;101244.11;1788766;79;21149;-45
2021/04/12 09:42:19;;;;;;;;;;;;;;;10.30;72.01;101247.20;1787665;80;21111;-44
2021/04/12 09:45:41;;;;;;;2.62;1.65;;;;;;;10.28;72.50;101240.61;1796371;78;20278;-44
2021/04/12 09:48:26;;;;;;;1.82;1.52;;;;;;;10.27;71.74;101247.69;1804932;78;21131;-45
2021/04/12 09:51:37;;;;;;;5.67;2.85;;;;;;;9.93;71.68;101247.05;1813865;78;21154;-44
2021/04/12 09:54:45;;;;;;;1.40;0.82;;;;;;;9.67;72.38;101237.20;1806797;78;21168;-44
2021/04/12 09:58:00;;;;;;;3.65;3.35;;;;;;;9.45;73.18;101239.37;1784733;80;21425;-45
2021/04/12 10:00:55;;;;;;;1.60;1.50;;;;;;;9.36;73.11;101239.52;1784313;80;21138;-45
2021/04/12 10:03:41;;;;;;;3.50;3.25;;;;;;;9.41;73.98;101227.30;1784949;80;21173;-45
2021/04/12 10:06:37;;;;;;;3.42;2.05;;;;;;;9.50;73.87;101228.25;1786285;78;21106;-45
2021/04/12 10:09:40;;;;;;;3.05;1.67;;;;;;;9.57;72.90;101224.25;1755760;80;21150;-45
2021/04/12 10:12:18;;;;;;;;;;;;;;;9.59;72.43;101226.70;1781586;80;21115;-46
2021/04/12 10:15:06;;;;;;;3.42;1.12;;;;;;;9.59;71.98;101230.25;1793470;78;20253;-44
2021/04/12 10:17:40;;;;;;;3.98;2.30;;;;;;;9.58;72.23;101224.52;1797812;78;21161;-45
2021/04/12 10:20:14;;;;;;;2.75;2.15;;;;;;;9.60;72.32;101227.01;1801351;78;21477;-45
2021/04/12 10:23:20;;;;;;;1.17;0.72;;;;;;;9.60;72.28;101222.92;1754962;80;21110;-45
2021/04/12 10:25:58;;;;;;;1.87;1.07;;;;;;;9.59;72.21;101222.61;1780633;80;20967;-44
2021/04/12 10:28:37;;;;;;;2.60;2.35;;;;;;;9.54;72.56;101226.64;1782232;79;21159;-45
2021/04/12 10:31:16;;;;;;;5.97;1.32;;;;;;;9.51;73.01;101229.89;1748473;80;21599;-45
2021/04/12 10:34:27;;;;;;;2.00;1.75;;;;;;;9.51;73.12;101234.80;1783267;79;21514;-45
2021/04/12 10:37:16;;;;;;;1.10;1.02;;;;;;;9.45;72.89;101232.55;1764971;80;21125;-45
2021/04/12 10:40:15;;;;;;;2.47;1.30;;;;;;;9.39;73.66;101227.27;1789429;78;21122;-44
2021/04/12 10:43:13;;;;;;;1.47;1.37;;;;;;;9.44;73.58;101220.52;1750625;81;21139;-45
2021/04/12 10:45:59;;;;;;;2.15;1.40;;;;;;;9.48;73.77;101221.13;1638265;84;21179;-45
2021/04/12 10:49:06;;;;;;;4.65;2.22;;;;;;;9.55;73.09;101218.77;1717682;82;21139;-45
2021/04/12 10:51:54;;;;;;;1.87;1.65;;;;;;;9.61;73.15;101221.83;1713042;81;21191;-45
2021/04/12 10:54:51;;;;;;;1.37;1.27;;;;;;;9.64;73.11;101222.67;1769078;80;21529;-45
2021/04/12 10:57:41;;;;;;;2.70;2.40;;;;;;;9.57;73.40;101220.16;1733102;82;21173;-44
2021/04/12 11:00:29;;;;;;;2.37;2.17;;;;;;;9.58;73.84;101219.61;1748892;81;21148;-44
2021/04/12 11:03:26;;;;;;;2.02;0.75;;;;;;;9.57;72.96;101223.40;1714082;82;21181;-45
2021/04/12 11:06:29;;;;;;;2.22;1.47;;;;;;;9.59;73.57;101217.16;1732433;82;21441;-45
2021/04/12 11:09:15;;;;;;;4.47;1.72;;;;;;;9.63;73.75;101216.94;1719077;80;21122;-44
2021/04/12 11:12:18;;;;;;;3.47;2.27;;;;;;;9.64;73.17;101213.13;1714860;82;21475;-44
2021/04/12 11:15:18;;;;;;;4.33;2.40;;;;;;;9.65;72.32;101218.34;1711971;82;21194;-44
2021/04/12 11:18:03;;;;;;;1.10;0.98;;;;;;;9.66;72.24;101213.70;1728401;82;21114;-45
2021/04/12 11:20:43;;;;;;;1.57;1.47;;;;;;;9.64;72.91;101217.22;1697786;82;21167;-44
2021/04/12 11:23:20;;;;;;;2.17;1.15;;;;;;;9.59;72.81;101211.70;1732817;82;21221;-45
2021/04/12 11:25:59;;;;;;;1.07;1.00;;;;;;;9.52;73.84;101220.61;1727741;80;21159;-44
2021/04/12 11:28:53;;;;;;;2.10;2.00;;;;;;;9.50;73.58;101218.70;1731608;82;21178;-45
2021/04/12 11:31:37;;;;;;;6.45;1.25;;;;;;;9.40;73.45;101213.39;1722216;82;21568;-44
2021/04/12 11:34:34;;;;;;;1.77;1.20;;;;;;;9.35;73.93;101212.51;1730003;80;21445;-45
2021/04/12 11:37:43;;;;;;;1.92;1.37;;;;;;;9.35;74.01;101210.59;1719270;82;21577;-45
2021/04/12 11:40:25;;;;;;;2.85;2.02;;;;;;;9.36;73.82;101209.50;1726230;81;21128;-44
2021/04/12 11:42:56;;;;;;;1.02;0.93;;;;;;;9.38;73.80;101207.36;1729633;82;21168;-44
2021/04/12 11:45:35;;;;;;;2.50;1.52;;;;;;;9.42;74.54;101199.48;1748026;80;21090;-45
2021/04/12 11:48:16;;;;;;;3.12;2.25;;;;;;;9.45;74.55;101202.55;1763782;80;21429;-45
2021/04/12 11:50:59;;;;;;;5.08;2.52;;;;;;;9.47;74.85;101196.30;1761155;78;21160;-45
2021/04/12 11:53:49;;;;;;;0.70;0.70;;;;;;;9.50;74.42;101199.60;1768927;80;21570;-45
2021/04/12 11:56:54;;;;;;;3.30;1.40;;;;;;;9.52;74.75;101197.42;1743886;81;21140;-44
2021/04/12 11:59:48;;;;;;;1.57;1.45;;;;;;;9.56;74.46;101205.39;1612335;81;21226;-44
2021/04/12 12:02:47;;;;;;;1.27;1.22;;;;;;;9.57;74.19;101204.30;1720558;83;21466;-45
2021/04/12 12:05:23;;;;;;;1.75;1.52;;;;;;;9.52;74.23;101206.45;1732732;82;21126;-44
2021/04/12 12:07:59;;;;;;;2.20;1.72;;;;;;;9.46;73.47;101201.45;1785657;80;21119;-45
2021/04/12 12:11:06;;;;;;;1.95;1.75;;;;;;;9.40;74.04;101194.30;1740118;81;21465;-44
2021/04/12 12:13:59;;;;;;;6.37;1.82;;;;;;;9.36;74.10;101196.41;1697432;81;21145;-45
2021/04/12 12:16:35;;;;;;;2.33;1.75;;;;;;;9.29;74.85;101200.68;1695039;83;21141;-44
2021/04/12 12:19:26;;;;;;;9.08;1.15;;;;;;;9.26;74.86;101195.19;1729350;81;21122;-45
2021/04/12 12:22:19;;;;;;;5.00;2.92;;;;;;;9.21;75.00;101186.13;1755404;81;21165;-44
2021/04/12 12:25:08;;;;;;;0.90;0.70;;;;;;;9.20;75.82;101196.77;1767833;80;21189;-45
2021/04/12 12:27:39;;;;;;;0.93;0.85;;;;;;;9.22;76.25;101195.43;1786162;80;21532;-44
2021/04/12 12:30:34;;;;;;;1.98;1.47;;;;;;;9.21;76.11;101197.03;1786078;78;21157;-44
2021/04/12 12:33:18;;;;;;;2.05;1.72;;;;;;;9.20;76.21;101201.67;1786210;80;21498;-45
2021/04/12 12:36:11;;;;;;;0.90;0.90;;;;;;;9.19;76.40;101208.18;1723304;81;21583;-44
2021/04/12 12:39:03;;;;;;;8.98;1.50;;;;;;;9.17;76.54;101197.23;1715085;82;21989;-44
2021/04/12 12:41:35;;;;;;;1.55;0.62;;;;;;;9.18;76.84;101207.09;1751609;81;21606;-44
2021/04/12 12:44:06;;;;;;;2.50;1.92;;;;;;;9.21;76.97;101208.77;1748344;80;21127;-45
2021/04/12 12:46:36;;;;;;;2.37;1.30;;;;;;;9.25;76.58;101207.73;1718368;83;21127;-44
2021/04/12 12:49:25;;;;;;;2.75;1.22;;;;;;;9.25;76.13;101207.19;1732449;82;21196;-44
2021/04/12 12:51:57;;;;;;;1.32;1.22;;;;;;;9.26;75.82;101201.19;1732697;82;21153;-45
2021/04/12 12:54:31;;;;;;;2.45;1.67;;;;;;;9.29;75.92;101203.41;1733530;81;21134;-45
2021/04/12 12:57:16;;;;;;;1.50;1.40;;;;;;;9.32;76.18;101207.02;1741126;82;21110;-45
2021/04/12 12:59:48;;;;;;;1.65;1.07;;;;;;;9.38;76.43;101210.63;1725307;81;21142;-45
2021/04/12 13:02:34;;;;;;;3.27;3.00;;;;;;;9.45;76.67;101207.17;1785989;80;21568;-45
2021/04/12 13:05:25;;;;;;;2.37;1.12;;;;;;;9.48;76.49;101207.48;1785934;80;21170;-45
2021/04/12 13:08:16;;;;;;;0.85;0.85;;;;;;;9.52;75.39;101210.55;1756034;80;21131;-44
2021/04/12 13:10:46;;;;;;;1.00;0.85;;;;;;;9.51;75.27;101209.42;1762080;80;21560;-44
2021/04/12 13:13:32;;;;;;;2.08;1.40;;;;;;;9.50;75.42;101209.97;1735217;82;21126;-44
2021/04/12 13:16:18;;;;;;;3.17;2.02;;;;;;;9.51;75.32;101214.33;1772568;80;21142;-44
2021/04/12 13:18:56;;;;;;;2.22;1.98;;;;;;;9.53;75.93;101210.00;1785861;78;21260;-44
2021/04/12 13:21:30;;;;;;;4.78;0.88;;;;;;;9.58;76.09;101207.33;1762035;80;21118;-44
2021/04/12 13:24:26;;;;;;;0.70;0.70;;;;;;;9.60;76.17;101206.55;1760666;80;21133;-45
2021/04/12 13:27:17;;;;;;;5.25;2.05;;;;;;;9.62;76.18;101211.22;1767221;80;21095;-44
2021/04/12 13:29:59;;;;;;;1.10;1.05;;;;;;;9.62;76.07;101208.48;1785228;79;21149;-45
2021/04/12 13:32:30;;;;;;;1.45;1.15;;;;;;;9.62;75.97;101209.84;1786185;80;21130;-45
2021/04/12 13:35:12;;;;;;;1.95;1.45;;;;;;;9.63;75.98;101214.21;1737221;80;21117;-44
2021/04/12 13:37:51;;;;;;;2.37;1.60;;;;;;;9.66;76.28;101219.16;1753024;81;21617;-45
2021/04/12 13:40:29;;;;;;;0.88;0.60;;;;;;;9.71;75.78;101213.76;1730349;81;21169;-45